createdAt,value
2023-09-09T07:34:20.610Z,82.76
2023-09-09T07:37:28.961Z,82.76
2023-09-09T07:40:32.299Z,82.71
2023-09-09T07:43:35.857Z,84.70
2023-09-09T07:46:39.312Z,83.11
2023-09-09T07:49:42.454Z,81.84
2023-09-09T07:52:45.521Z,77.54
2023-09-09T07:55:52.612Z,76.94
2023-09-09T07:58:55.271Z,78.83
2023-09-09T08:01:58.677Z,75.22
2023-09-09T08:05:01.754Z,72.80
2023-09-09T08:08:06.665Z,70.07
2023-09-09T08:11:09.738Z,70.28
2023-09-09T08:14:14.706Z,70.14
2023-09-09T08:17:20.399Z,70.74
2023-09-09T08:20:23.430Z,68.95
2023-09-09T08:23:26.501Z,69.13
2023-09-09T08:26:30.131Z,67.18
2023-09-09T08:29:32.982Z,69.27
2023-09-09T08:32:35.953Z,64.02
2023-09-09T08:35:41.356Z,65.49
2023-09-09T08:38:44.335Z,64.80
2023-09-09T08:41:59.438Z,64.67
2023-09-09T08:45:24.056Z,64.76
2023-09-09T08:48:29.067Z,62.97
2023-09-09T08:51:54.998Z,62.21
2023-09-09T08:54:58.953Z,60.13
2023-09-09T08:58:03.358Z,61.47
2023-09-09T09:01:06.786Z,60.43
2023-09-09T09:04:11.543Z,61.42
2023-09-09T09:07:15.759Z,61.58
2023-09-09T09:10:20.289Z,57.29
2023-09-09T09:13:23.160Z,59.16
2023-09-09T09:16:25.764Z,57.95
2023-09-09T09:19:32.016Z,55.71
2023-09-09T09:22:35.483Z,55.82
2023-09-09T09:25:43.501Z,54.94
2023-09-09T09:28:46.309Z,53.89
2023-09-09T09:31:53.871Z,54.98
2023-09-09T09:34:56.472Z,54.76
2023-09-09T09:38:01.342Z,55.49
2023-09-09T09:41:04.916Z,55.44
2023-09-09T09:44:26.508Z,53.27
2023-09-09T09:47:51.493Z,52.27
2023-09-09T09:50:55.244Z,51.80
